createdAt,value
2023-12-21T00:00:20.032Z,83.58
2023-12-21T00:05:41.934Z,83.82
2023-12-21T00:11:03.911Z,82.35
2023-12-21T00:16:25.863Z,83.12
2023-12-21T00:21:47.824Z,83.08
2023-12-21T00:27:09.761Z,85.31
2023-12-21T00:32:31.645Z,85.53
2023-12-21T00:37:53.509Z,85.40
2023-12-21T00:43:15.539Z,85.57
2023-12-21T00:48:37.571Z,85.66
2023-12-21T00:53:59.623Z,85.30
2023-12-21T00:59:21.472Z,86.62
2023-12-21T01:04:43.418Z,84.79
2023-12-21T01:10:06.474Z,85.97
2023-12-21T01:15:28.341Z,85.74
2023-12-21T01:20:50.183Z,87.13
2023-12-21T01:26:12.135Z,86.00
2023-12-21T01:31:34.012Z,86.17
2023-12-21T01:36:55.944Z,86.42
2023-12-21T01:42:17.983Z,86.78
2023-12-21T01:47:40.189Z,85.76
2023-12-21T01:53:03.414Z,85.02
2023-12-21T01:58:25.696Z,85.02
2023-12-21T02:03:47.625Z,84.01
2023-12-21T02:09:10.032Z,83.65
2023-12-21T02:14:31.827Z,83.23
2023-12-21T02:19:54.738Z,83.19
2023-12-21T02:25:17.017Z,83.14
2023-12-21T02:30:38.847Z,83.09
2023-12-21T02:36:00.737Z,82.17
2023-12-21T02:41:22.509Z,82.14
2023-12-21T02:46:44.342Z,82.56
2023-12-21T02:52:06.595Z,81.97
2023-12-21T02:57:28.470Z,81.74
2023-12-21T03:02:50.240Z,81.43
2023-12-21T03:08:12.094Z,81.70
2023-12-21T03:13:34.056Z,82.56
2023-12-21T03:18:56.010Z,82.55
2023-12-21T03:24:17.932Z,82.55
2023-12-21T03:29:39.705Z,82.76
2023-12-21T03:35:01.590Z,82.96
2023-12-21T03:40:23.596Z,83.96
2023-12-21T03:45:45.468Z,85.05
2023-12-21T03:51:07.392Z,85.28
2023-12-21T03:56:29.282Z,84.97
2023-12-21T04:01:52.616Z,85.03
2023-12-21T04:07:14.493Z,84.68
2023-12-21T04:12:38.438Z,85.40
2023-12-21T04:18:00.296Z,88.17
2023-12-21T04:23:22.415Z,90.97
2023-12-21T04:28:44.288Z,90.51
2023-12-21T04:34:06.732Z,91.81
2023-12-21T04:39:28.648Z,92.09
2023-12-21T04:44:50.504Z,94.19
2023-12-21T04:50:12.327Z,95.14
2023-12-21T04:55:34.856Z,95.43
2023-12-21T05:00:56.825Z,94.71
2023-12-21T05:06:18.668Z,94.63
2023-12-21T05:11:41.080Z,94.45
2023-12-21T05:17:02.922Z,93.68
2023-12-21T05:22:24.755Z,93.92
2023-12-21T05:27:46.707Z,95.30
2023-12-21T05:33:08.743Z,93.95
2023-12-21T05:38:30.883Z,95.33
2023-12-21T05:43:52.771Z,94.08
2023-12-21T05:49:14.756Z,92.76
2023-12-21T05:54:36.728Z,91.84
2023-12-21T05:59:58.782Z,91.93
2023-12-21T06:05:20.647Z,93.04
2023-12-21T06:10:42.705Z,93.40
2023-12-21T06:16:05.124Z,94.11
2023-12-21T06:21:27.172Z,94.89
2023-12-21T06:26:48.913Z,95.37
2023-12-21T06:32:11.687Z,95.80
2023-12-21T06:37:33.666Z,97.12
2023-12-21T06:42:55.696Z,96.99
2023-12-21T06:48:17.668Z,97.23
2023-12-21T06:53:39.968Z,96.76
2023-12-21T06:59:02.010Z,95.12
2023-12-21T07:04:23.858Z,93.96
2023-12-21T07:09:45.708Z,93.16
2023-12-21T07:15:07.958Z,93.65
2023-12-21T07:20:31.653Z,93.07
2023-12-21T07:25:53.398Z,94.47
2023-12-21T07:31:17.218Z,94.25
2023-12-21T07:36:39.177Z,94.83
2023-12-21T07:42:01.942Z,95.78
2023-12-21T07:47:23.915Z,96.31
2023-12-21T07:52:46.137Z,97.70
2023-12-21T07:58:08.159Z,97.47
2023-12-21T08:03:30.272Z,96.89
2023-12-21T08:08:58.059Z,96.38
2023-12-21T08:14:21.429Z,97.00
2023-12-21T08:19:43.379Z,96.78
2023-12-21T08:25:05.587Z,96.06
2023-12-21T08:30:27.469Z,97.29
2023-12-21T08:35:49.304Z,96.71
2023-12-21T08:41:11.232Z,95.84
2023-12-21T08:46:33.140Z,96.46
2023-12-21T08:51:55.152Z,97.51
2023-12-21T08:57:22.683Z,97.95
2023-12-21T09:02:44.692Z,98.18
2023-12-21T09:08:07.475Z,97.88
2023-12-21T09:13:29.328Z,98.91
2023-12-21T09:18:53.383Z,97.68
2023-12-21T09:24:15.362Z,97.11
2023-12-21T09:29:38.468Z,96.25
2023-12-21T09:35:00.344Z,95.69
2023-12-21T09:40:25.890Z,94.64
2023-12-21T09:45:49.652Z,93.81
2023-12-21T09:51:16.238Z,93.62
2023-12-21T09:56:38.272Z,92.34
2023-12-21T10:02:00.301Z,90.96
2023-12-21T10:07:24.119Z,91.50
2023-12-21T10:12:46.360Z,90.77
2023-12-21T10:18:08.422Z,91.79
2023-12-21T10:23:30.459Z,91.84
2023-12-21T10:28:55.873Z,91.81
2023-12-21T10:34:19.029Z,93.00
2023-12-21T10:39:41.710Z,92.97
2023-12-21T10:45:13.171Z,92.21
2023-12-21T10:50:39.736Z,93.42
2023-12-21T10:56:02.646Z,92.28
2023-12-21T11:01:25.634Z,91.99
2023-12-21T11:06:48.534Z,90.66
2023-12-21T11:12:10.420Z,91.84
2023-12-21T11:17:34.988Z,90.96
2023-12-21T11:22:57.122Z,92.30
2023-12-21T11:28:29.653Z,92.44
2023-12-21T11:33:51.672Z,92.41
2023-12-21T11:39:16.875Z,92.85
2023-12-21T11:44:39.394Z,91.78
2023-12-21T11:50:08.456Z,89.88
2023-12-21T11:55:30.676Z,90.89
2023-12-21T12:00:55.062Z,91.27
2023-12-21T12:06:17.807Z,91.09
2023-12-21T12:11:42.932Z,91.53
2023-12-21T12:17:07.540Z,90.08
2023-12-21T12:22:29.549Z,89.32
2023-12-21T12:27:51.636Z,88.59
2023-12-21T12:33:14.229Z,87.92
2023-12-21T12:38:36.617Z,89.31
2023-12-21T12:43:59.550Z,88.51
2023-12-21T12:49:23.571Z,88.98
2023-12-21T12:54:49.228Z,88.36
2023-12-21T13:00:13.997Z,86.80
2023-12-21T13:05:36.057Z,86.56
2023-12-21T13:10:58.134Z,85.67
2023-12-21T13:16:20.385Z,86.37
2023-12-21T13:21:45.065Z,87.14
2023-12-21T13:27:07.784Z,86.39
2023-12-21T13:32:30.544Z,91.75
2023-12-21T13:37:52.725Z,96.88
2023-12-21T13:43:14.790Z,99.59
2023-12-21T13:48:37.140Z,100.00
2023-12-21T13:53:59.303Z,100.00
2023-12-21T13:59:21.150Z,100.00
2023-12-21T14:04:43.207Z,98.54
2023-12-21T14:10:05.791Z,98.30
2023-12-21T14:15:28.669Z,98.19
2023-12-21T14:20:52.857Z,98.52
2023-12-21T14:26:15.014Z,100.00
2023-12-21T14:31:36.906Z,100.00
2023-12-21T14:36:58.814Z,100.00
2023-12-21T14:42:20.640Z,100.00
2023-12-21T14:47:42.760Z,100.00
2023-12-21T14:53:04.665Z,100.00
2023-12-21T14:58:26.622Z,100.00
2023-12-21T15:03:48.592Z,100.00
2023-12-21T15:09:10.764Z,100.00
2023-12-21T15:14:32.710Z,100.00
2023-12-21T15:19:54.584Z,100.00
2023-12-21T15:25:16.462Z,100.00
2023-12-21T15:30:38.320Z,100.00
2023-12-21T15:36:00.399Z,100.00
2023-12-21T15:41:23.412Z,100.00
2023-12-21T15:46:45.356Z,100.00
2023-12-21T15:52:08.685Z,100.00
2023-12-21T15:57:31.163Z,100.00
2023-12-21T16:02:54.891Z,100.00
2023-12-21T16:08:16.809Z,100.00
2023-12-21T16:13:39.085Z,100.00
2023-12-21T16:19:01.191Z,100.00
2023-12-21T16:24:26.518Z,100.00
2023-12-21T16:29:48.430Z,100.00
2023-12-21T16:35:11.643Z,100.00
2023-12-21T16:40:33.669Z,100.00
2023-12-21T16:45:55.599Z,100.00
2023-12-21T16:51:17.541Z,100.00
2023-12-21T16:56:42.204Z,100.00
2023-12-21T17:02:04.321Z,100.00
2023-12-21T17:07:26.341Z,100.00
2023-12-21T17:12:48.353Z,100.00
2023-12-21T17:18:11.236Z,100.00
2023-12-21T17:23:33.382Z,100.00
2023-12-21T17:28:55.287Z,100.00
2023-12-21T17:34:20.229Z,100.00
2023-12-21T17:39:42.508Z,100.00
2023-12-21T17:45:09.918Z,100.00
2023-12-21T17:50:32.564Z,99.70
2023-12-21T17:55:54.498Z,100.00
2023-12-21T18:01:16.579Z,99.07
2023-12-21T18:06:38.465Z,100.00
2023-12-21T18:12:00.396Z,100.00
2023-12-21T18:17:22.257Z,100.00
2023-12-21T18:22:44.219Z,100.00
2023-12-21T18:28:06.200Z,99.81
2023-12-21T18:33:28.055Z,99.12
2023-12-21T18:38:50.145Z,96.94
2023-12-21T18:44:12.043Z,92.21
2023-12-21T18:49:34.159Z,91.57
2023-12-21T18:54:56.178Z,89.17
2023-12-21T19:00:20.193Z,91.61
2023-12-21T19:05:46.519Z,96.01
2023-12-21T19:11:19.902Z,99.36
2023-12-21T19:16:44.553Z,100.00
2023-12-21T19:22:06.503Z,100.00
2023-12-21T19:27:28.357Z,100.00
2023-12-21T19:32:50.312Z,100.00
2023-12-21T19:38:12.318Z,100.00
2023-12-21T19:43:34.543Z,98.02
2023-12-21T19:48:56.605Z,95.24
2023-12-21T19:54:18.568Z,90.33
2023-12-21T19:59:40.492Z,90.56
2023-12-21T20:05:02.532Z,87.11
2023-12-21T20:10:24.688Z,85.63
2023-12-21T20:15:46.596Z,84.44
2023-12-21T20:21:08.454Z,83.00
2023-12-21T20:26:30.337Z,81.33
2023-12-21T20:31:52.245Z,77.74
2023-12-21T20:37:14.236Z,76.32
2023-12-21T20:42:36.073Z,75.41
2023-12-21T20:47:58.498Z,74.99
2023-12-21T20:53:22.223Z,72.57
2023-12-21T20:58:44.164Z,71.71
2023-12-21T21:04:05.938Z,70.34
2023-12-21T21:09:29.411Z,71.96
2023-12-21T21:14:51.199Z,73.27
2023-12-21T21:20:13.157Z,73.62
2023-12-21T21:25:35.045Z,74.67
2023-12-21T21:31:00.502Z,75.39
2023-12-21T21:36:24.177Z,75.21
2023-12-21T21:41:49.381Z,76.37
2023-12-21T21:47:11.232Z,76.60
2023-12-21T21:52:33.197Z,77.01
2023-12-21T21:57:55.188Z,78.04
2023-12-21T22:03:17.156Z,78.30
2023-12-21T22:08:38.993Z,78.29
2023-12-21T22:14:02.272Z,77.79
2023-12-21T22:19:24.339Z,78.39
2023-12-21T22:24:46.247Z,80.95
2023-12-21T22:30:08.688Z,83.73
2023-12-21T22:35:31.641Z,84.30
2023-12-21T22:40:53.702Z,90.61
2023-12-21T22:46:15.804Z,99.34
2023-12-21T22:51:37.712Z,100.00
2023-12-21T22:56:59.530Z,100.00
2023-12-21T23:02:21.473Z,100.00
2023-12-21T23:07:44.215Z,100.00
2023-12-21T23:13:06.224Z,100.00
2023-12-21T23:18:28.177Z,100.00
2023-12-21T23:23:50.091Z,100.00
2023-12-21T23:29:11.976Z,100.00
2023-12-21T23:34:33.782Z,100.00
2023-12-21T23:40:00.145Z,100.00
2023-12-21T23:45:22.414Z,100.00
2023-12-21T23:50:44.221Z,100.00
2023-12-21T23:56:06.055Z,100.00
